Time;durP1;ratioP1;P1;durP2;ratioP2;P2;SDS_P1;SDS_P2;PMS_P1;PMS_P2;Temp;Humidity;BMP_temperature;BMP_pressure;BME280_temperature;BME280_humidity;BME280_pressure;Samples;Min_cycle;Max_cycle;Signal;HPM_P1;HPM_P2
2022/07/07 00:01:09;;;;;;;9.53;8.63;;;14.80;94.70;;;;;;5053499;28;20223;-88
2022/07/07 00:03:34;;;;;;;8.47;7.67;;;14.70;94.70;;;;;;5054849;28;20183;-89
2022/07/07 00:06:00;;;;;;;9.67;8.77;;;14.70;94.70;;;;;;5053478;28;20561;-88
2022/07/07 00:08:26;;;;;;;10.37;9.37;;;14.70;94.80;;;;;;5053633;28;20183;-88
2022/07/07 00:10:51;;;;;;;9.60;8.63;;;14.70;94.80;;;;;;5054594;28;20192;-88
2022/07/07 00:13:17;;;;;;;9.23;8.47;;;14.80;94.90;;;;;;5054539;28;20199;-88
2022/07/07 00:15:45;;;;;;;12.43;10.00;;;14.80;94.90;;;;;;5053259;28;20581;-87
2022/07/07 00:18:11;;;;;;;9.90;8.90;;;14.80;94.90;;;;;;5053560;28;20168;-87
2022/07/07 00:20:37;;;;;;;9.73;8.73;;;14.80;94.90;;;;;;5053320;28;20176;-87
2022/07/07 00:23:03;;;;;;;9.90;9.00;;;14.80;94.90;;;;;;5054549;28;20777;-87
2022/07/07 00:25:28;;;;;;;9.30;8.40;;;14.80;94.90;;;;;;5052947;28;20219;-88
2022/07/07 00:27:54;;;;;;;10.50;9.60;;;14.80;95.00;;;;;;5053664;28;20626;-88
2022/07/07 00:30:20;;;;;;;11.10;10.10;;;14.80;95.00;;;;;;5053309;28;20275;-88
2022/07/07 00:32:45;;;;;;;18.80;10.60;;;14.80;95.00;;;;;;5053161;28;20290;-89
2022/07/07 00:35:11;;;;;;;12.43;11.07;;;14.80;95.00;;;;;;5054236;28;20203;-88
2022/07/07 00:37:36;;;;;;;12.43;11.13;;;14.90;95.10;;;;;;5053028;28;20187;-87
2022/07/07 00:40:03;;;;;;;13.70;10.63;;;14.80;95.10;;;;;;5054499;28;20172;-88
2022/07/07 00:42:28;;;;;;;11.97;10.87;;;14.90;95.10;;;;;;5054202;28;20662;-87
2022/07/07 00:44:54;;;;;;;13.73;11.20;;;14.80;95.20;;;;;;5053091;28;20222;-88
2022/07/07 00:47:19;;;;;;;14.17;10.93;;;14.90;95.20;;;;;;5054130;28;20183;-87
2022/07/07 00:49:45;;;;;;;13.77;12.33;;;14.90;95.20;;;;;;5054303;28;20560;-88
2022/07/07 00:52:11;;;;;;;16.27;12.80;;;14.90;95.30;;;;;;5053099;28;20207;-87
2022/07/07 00:54:37;;;;;;;14.43;12.60;;;14.90;95.30;;;;;;5054413;28;20733;-87
2022/07/07 00:57:05;;;;;;;18.50;14.00;;;14.90;95.40;;;;;;5054507;28;20183;-88
2022/07/07 00:59:33;;;;;;;13.90;12.37;;;14.90;95.40;;;;;;5054218;28;20172;-88
2022/07/07 01:01:58;;;;;;;15.20;13.57;;;14.90;95.40;;;;;;5054228;28;20192;-87
2022/07/07 01:04:24;;;;;;;18.10;14.50;;;15.00;95.40;;;;;;5052958;28;20184;-86
2022/07/07 01:06:50;;;;;;;19.13;14.90;;;15.00;95.50;;;;;;5052650;28;20211;-87
2022/07/07 01:09:16;;;;;;;17.30;15.13;;;15.00;95.50;;;;;;5054046;28;20684;-88
2022/07/07 01:11:52;;;;;;;18.97;15.67;;;15.00;95.50;;;;;;5053875;28;20200;-86
2022/07/07 01:14:18;;;;;;;16.97;14.73;;;15.00;95.50;;;;;;5055399;28;20704;-87
2022/07/07 01:16:44;;;;;;;23.63;16.90;;;15.00;95.60;;;;;;5056275;28;20175;-87
2022/07/07 01:19:11;;;;;;;19.20;15.70;;;15.10;95.60;;;;;;5053420;28;20176;-88
2022/07/07 01:21:48;;;;;;;17.57;15.07;;;15.10;95.60;;;;;;5054337;28;20203;-89
2022/07/07 01:24:14;;;;;;;19.37;15.60;;;15.10;95.60;;;;;;5054235;28;20191;-88
2022/07/07 01:26:39;;;;;;;20.23;15.20;;;15.10;95.60;;;;;;5056044;28;20614;-88
2022/07/07 01:29:05;;;;;;;17.70;15.90;;;15.10;95.60;;;;;;5053968;28;20184;-89
2022/07/07 01:31:31;;;;;;;16.63;14.83;;;15.20;95.60;;;;;;5053293;28;20673;-90
2022/07/07 01:33:56;;;;;;;20.03;16.23;;;15.20;95.60;;;;;;5052001;28;20182;-89
2022/07/07 01:36:22;;;;;;;21.37;17.20;;;15.20;95.60;;;;;;5051826;28;20211;-90
2022/07/07 01:38:48;;;;;;;20.03;15.70;;;15.20;95.60;;;;;;5056847;28;20183;-90
2022/07/07 01:41:13;;;;;;;19.43;16.80;;;15.20;95.60;;;;;;5056194;28;20569;-90
2022/07/07 01:43:39;;;;;;;19.03;16.37;;;15.20;95.60;;;;;;5057249;28;20183;-90
2022/07/07 01:46:04;;;;;;;20.33;17.20;;;15.30;95.60;;;;;;5056288;28;20191;-90
2022/07/07 01:48:30;;;;;;;18.77;16.07;;;15.30;95.60;;;;;;5055978;28;20184;-88
2022/07/07 01:50:55;;;;;;;20.53;15.67;;;15.30;95.60;;;;;;5056548;28;20206;-88
2022/07/07 01:53:21;;;;;;;17.13;15.30;;;15.30;95.60;;;;;;5055834;28;20638;-89
2022/07/07 01:55:46;;;;;;;21.87;17.47;;;15.30;95.60;;;;;;5055775;28;20686;-91
2022/07/07 01:58:13;;;;;;;18.80;16.80;;;15.30;95.70;;;;;;5055783;28;20195;-90
2022/07/07 02:00:39;;;;;;;18.53;16.20;;;15.30;95.60;;;;;;5055695;28;20561;-89
2022/07/07 02:03:04;;;;;;;22.67;18.50;;;15.30;95.60;;;;;;5055667;28;20172;-90
2022/07/07 02:05:30;;;;;;;19.47;17.50;;;15.30;95.60;;;;;;5055606;28;20172;-90
2022/07/07 02:07:55;;;;;;;24.83;19.67;;;15.40;95.60;;;;;;5055683;28;20183;-90
2022/07/07 02:13:05;;;;;;;21.63;19.00;;;15.50;95.60;;;;;;5057345;28;20183;-90
2022/07/07 02:15:32;;;;;;;22.50;18.07;;;15.50;95.60;;;;;;5055582;28;20689;-91
2022/07/07 02:17:58;;;;;;;25.60;19.90;;;15.50;95.60;;;;;;5056933;28;20169;-91
2022/07/07 02:20:23;;;;;;;18.70;16.50;;;15.50;95.50;;;;;;5055476;28;20179;-89
2022/07/07 02:22:49;;;;;;;19.43;17.53;;;15.50;95.50;;;;;;5056451;28;20230;-90
2022/07/07 02:25:14;;;;;;;19.90;17.80;;;15.50;95.40;;;;;;5055065;28;20196;-90
2022/07/07 02:27:40;;;;;;;18.17;15.80;;;15.50;95.40;;;;;;5056634;28;20198;-90
2022/07/07 02:30:07;;;;;;;18.27;16.03;;;15.60;95.40;;;;;;5055296;28;20652;-90
2022/07/07 02:32:32;;;;;;;20.50;15.63;;;15.50;95.40;;;;;;5056037;28;20210;-90
2022/07/07 02:34:58;;;;;;;28.37;16.60;;;15.50;95.50;;;;;;5055212;28;20290;-89
2022/07/07 02:37:25;;;;;;;18.67;15.95;;;15.60;95.40;;;;;;5055163;28;20179;-89
2022/07/07 02:39:51;;;;;;;30.97;15.73;;;15.60;95.50;;;;;;5055002;28;20537;-89
2022/07/07 02:42:17;;;;;;;19.30;16.37;;;15.50;95.50;;;;;;5055002;28;20203;-88
2022/07/07 02:44:42;;;;;;;19.75;15.00;;;15.50;95.40;;;;;;5055344;28;20271;-89
2022/07/07 02:47:08;;;;;;;20.00;16.37;;;15.60;95.50;;;;;;5056042;28;20180;-90
2022/07/07 02:49:33;;;;;;;23.87;17.60;;;15.60;95.50;;;;;;5053297;28;20191;-90
2022/07/07 02:51:59;;;;;;;19.90;15.82;;;15.60;95.50;;;;;;5054601;28;20245;-89
2022/07/07 02:54:25;;;;;;;21.95;16.95;;;15.50;95.60;;;;;;5055719;28;20570;-90
2022/07/07 02:56:50;;;;;;;18.40;16.37;;;15.60;95.60;;;;;;5054630;28;20173;-90
2022/07/07 02:59:16;;;;;;;23.17;18.70;;;15.60;95.60;;;;;;5056006;28;20176;-90
2022/07/07 03:01:41;;;;;;;22.40;18.80;;;15.60;95.60;;;;;;5054604;28;20270;-89
2022/07/07 03:04:07;;;;;;;21.80;19.50;;;15.60;95.60;;;;;;5054762;28;20176;-90
2022/07/07 03:06:32;;;;;;;24.23;20.93;;;15.60;95.60;;;;;;5054522;28;20231;-89
2022/07/07 03:08:58;;;;;;;26.92;19.77;;;15.60;95.70;;;;;;5054459;28;20176;-88
2022/07/07 03:11:23;;;;;;;24.45;21.20;;;15.60;95.60;;;;;;5055615;28;20631;-90
2022/07/07 03:13:49;;;;;;;24.43;19.83;;;15.70;95.60;;;;;;5055641;28;20638;-90
2022/07/07 03:16:14;;;;;;;24.33;20.83;;;15.70;95.60;;;;;;5054120;28;20239;-89
2022/07/07 03:18:40;;;;;;;24.40;21.85;;;15.70;95.60;;;;;;5054276;28;20176;-89
2022/07/07 03:21:05;;;;;;;22.53;19.47;;;15.70;95.70;;;;;;5054121;28;20196;-90
2022/07/07 03:23:31;;;;;;;26.17;19.27;;;15.70;95.70;;;;;;5054123;28;20176;-91
2022/07/07 03:25:56;;;;;;;24.40;20.37;;;15.70;95.70;;;;;;5053953;28;20203;-90
2022/07/07 03:28:22;;;;;;;28.03;19.80;;;15.60;95.70;;;;;;5054167;28;20191;-90
2022/07/07 03:30:47;;;;;;;23.73;18.67;;;15.70;95.70;;;;;;5053926;28;20195;-89
2022/07/07 03:33:13;;;;;;;19.87;17.13;;;15.70;95.70;;;;;;5054016;28;20230;-90
2022/07/07 03:35:40;;;;;;;21.15;16.67;;;15.60;95.70;;;;;;5053800;28;20669;-90
2022/07/07 03:38:05;;;;;;;17.90;15.13;;;15.70;95.80;;;;;;5053825;28;20176;-89
2022/07/07 03:40:32;;;;;;;18.85;15.85;;;15.70;95.80;;;;;;5053674;28;20177;-90
2022/07/07 03:42:58;;;;;;;20.80;16.47;;;15.60;95.80;;;;;;5053781;28;20262;-89
2022/07/07 03:45:24;;;;;;;18.25;14.93;;;15.70;95.80;;;;;;5053771;28;20283;-89
2022/07/07 03:47:50;;;;;;;15.65;12.95;;;15.70;95.90;;;;;;5053730;28;20187;-89
2022/07/07 03:50:15;;;;;;;12.95;11.63;;;15.70;95.80;;;;;;5053814;28;20180;-89
2022/07/07 03:52:41;;;;;;;13.43;11.32;;;15.70;95.80;;;;;;5053618;28;20199;-89
2022/07/07 03:55:08;;;;;;;11.73;10.48;;;15.70;95.80;;;;;;5053502;28;20215;-91
2022/07/07 03:57:34;;;;;;;11.30;9.48;;;15.70;95.80;;;;;;5053644;28;20176;-90
2022/07/07 04:00:00;;;;;;;10.45;8.02;;;15.70;95.70;;;;;;5052978;28;20241;-90
2022/07/07 04:02:26;;;;;;;11.97;8.50;;;15.70;95.70;;;;;;5054716;28;20188;-90
2022/07/07 04:04:52;;;;;;;10.63;8.18;;;15.70;95.70;;;;;;5054868;28;20677;-89
2022/07/07 04:07:18;;;;;;;9.73;8.75;;;15.80;95.70;;;;;;5053495;28;20209;-89
2022/07/07 04:09:43;;;;;;;11.27;8.48;;;15.70;95.70;;;;;;5053243;28;20661;-89
2022/07/07 04:12:09;;;;;;;10.52;9.20;;;15.70;95.70;;;;;;5054663;28;20688;-89
2022/07/07 04:14:34;;;;;;;11.68;7.95;;;15.70;95.80;;;;;;5054821;28;20192;-92
2022/07/07 04:17:00;;;;;;;10.88;8.73;;;15.80;95.80;;;;;;5053320;28;20184;-89
2022/07/07 04:19:26;;;;;;;9.13;7.28;;;15.80;95.80;;;;;;5053493;28;20223;-89
2022/07/07 04:21:51;;;;;;;7.80;6.47;;;15.70;95.80;;;;;;5052899;28;20666;-89
2022/07/07 04:24:17;;;;;;;10.23;6.57;;;15.70;95.80;;;;;;5053077;28;20192;-89
2022/07/07 04:26:43;;;;;;;8.88;6.55;;;15.80;95.80;;;;;;5053034;28;20191;-88
2022/07/07 04:29:09;;;;;;;6.45;5.43;;;15.80;95.90;;;;;;5054911;28;20164;-88
2022/07/07 04:31:34;;;;;;;5.80;4.40;;;15.80;95.90;;;;;;5053948;28;20666;-90
2022/07/07 04:34:00;;;;;;;7.93;4.88;;;15.80;95.90;;;;;;5052680;28;20183;-90
2022/07/07 04:36:26;;;;;;;8.77;4.20;;;15.80;95.90;;;;;;5052908;28;20286;-89
2022/07/07 04:38:51;;;;;;;5.32;4.32;;;15.80;95.90;;;;;;5053879;28;20168;-89
2022/07/07 04:41:17;;;;;;;5.22;4.45;;;15.80;95.90;;;;;;5053763;28;20682;-89
2022/07/07 04:43:42;;;;;;;5.30;3.83;;;15.80;95.90;;;;;;5053722;28;20225;-89
2022/07/07 04:46:08;;;;;;;5.78;3.25;;;15.70;95.90;;;;;;5056224;28;20318;-90
2022/07/07 04:48:34;;;;;;;4.47;3.00;;;15.80;96.00;;;;;;5052965;28;20207;-91
2022/07/07 04:50:59;;;;;;;3.80;3.17;;;15.80;95.90;;;;;;5052926;28;20207;-90
2022/07/07 04:53:25;;;;;;;10.13;3.67;;;15.80;96.00;;;;;;5052429;28;20667;-89
2022/07/07 04:55:50;;;;;;;5.53;4.38;;;15.80;95.90;;;;;;5052272;28;20230;-89
2022/07/07 04:58:16;;;;;;;6.65;3.60;;;15.90;96.00;;;;;;5052328;28;20707;-89
2022/07/07 05:00:41;;;;;;;5.53;3.67;;;15.90;96.00;;;;;;5052695;28;20180;-89
2022/07/07 05:03:07;;;;;;;5.25;2.90;;;15.90;95.90;;;;;;5053743;28;20542;-89
2022/07/07 05:05:32;;;;;;;3.88;3.00;;;16.00;95.90;;;;;;5052261;28;20172;-88
2022/07/07 05:07:58;;;;;;;7.22;3.70;;;16.00;96.00;;;;;;5052194;28;20178;-89
2022/07/07 05:10:23;;;;;;;6.43;3.70;;;16.00;96.00;;;;;;5052242;28;20275;-89
2022/07/07 05:12:49;;;;;;;5.55;3.85;;;16.00;95.90;;;;;;5052523;28;20696;-88
2022/07/07 05:15:14;;;;;;;8.60;4.35;;;16.00;95.90;;;;;;5053558;28;20231;-89
2022/07/07 05:17:40;;;;;;;4.28;3.75;;;16.10;96.00;;;;;;5052190;28;20179;-90
2022/07/07 05:20:06;;;;;;;5.43;3.70;;;16.00;95.90;;;;;;5052065;28;20179;-89
2022/07/07 05:22:32;;;;;;;6.85;4.20;;;16.00;96.00;;;;;;5052020;28;20244;-90
2022/07/07 05:24:57;;;;;;;6.28;4.13;;;16.10;96.00;;;;;;5053470;28;20191;-90
2022/07/07 05:27:23;;;;;;;4.88;4.00;;;16.00;95.90;;;;;;5053410;28;20188;-90
2022/07/07 05:29:48;;;;;;;10.15;4.57;;;16.10;96.00;;;;;;5052317;28;20187;-90
2022/07/07 05:32:14;;;;;;;7.18;4.13;;;16.20;96.00;;;;;;5052116;28;20196;-90
2022/07/07 05:34:39;;;;;;;7.72;3.50;;;16.20;95.90;;;;;;5053129;28;20199;-89
2022/07/07 05:37:05;;;;;;;5.97;3.42;;;16.10;95.80;;;;;;5051978;28;20172;-89
2022/07/07 05:39:30;;;;;;;5.35;3.15;;;16.20;95.90;;;;;;5051947;28;20545;-89
2022/07/07 05:41:56;;;;;;;4.82;3.10;;;16.20;95.90;;;;;;5051899;28;20597;-89
2022/07/07 05:44:21;;;;;;;7.53;3.40;;;16.10;95.80;;;;;;5052016;28;20208;-89
2022/07/07 05:46:47;;;;;;;11.77;3.38;;;16.20;95.80;;;;;;5051767;28;20168;-88
2022/07/07 05:49:13;;;;;;;4.57;2.63;;;16.20;95.80;;;;;;5052383;28;20172;-89
2022/07/07 05:51:38;;;;;;;5.68;2.63;;;16.20;95.70;;;;;;5051877;28;20195;-90
2022/07/07 05:54:04;;;;;;;9.65;3.22;;;16.20;95.80;;;;;;5052143;28;20179;-90
2022/07/07 05:56:29;;;;;;;6.47;3.05;;;16.30;95.70;;;;;;5051645;28;20207;-88
2022/07/07 05:58:55;;;;;;;8.95;3.55;;;16.30;95.70;;;;;;5051663;28;20169;-89
2022/07/07 06:01:20;;;;;;;8.35;2.70;;;16.30;95.50;;;;;;5051651;28;20188;-88
2022/07/07 06:03:46;;;;;;;8.23;3.30;;;16.40;95.70;;;;;;5051725;28;20172;-89
2022/07/07 06:06:11;;;;;;;8.13;3.30;;;16.50;95.60;;;;;;5051726;28;20570;-89
2022/07/07 06:08:38;;;;;;;9.77;3.10;;;16.50;95.60;;;;;;5053109;28;20254;-90
2022/07/07 06:11:04;;;;;;;7.10;3.25;;;16.60;95.60;;;;;;5053069;28;20689;-90
2022/07/07 06:13:29;;;;;;;9.60;2.90;;;16.40;95.20;;;;;;5051953;28;20250;-89
2022/07/07 06:15:56;;;;;;;7.00;3.42;;;16.60;95.30;;;;;;5051671;28;20739;-89
2022/07/07 06:18:22;;;;;;;16.45;3.35;;;16.70;95.20;;;;;;5051708;28;20662;-89
2022/07/07 06:20:48;;;;;;;7.95;2.50;;;16.80;95.30;;;;;;5051605;28;20198;-90
2022/07/07 06:23:13;;;;;;;7.63;3.20;;;16.70;95.10;;;;;;5052067;28;20271;-89
2022/07/07 06:25:39;;;;;;;12.35;3.88;;;16.80;95.20;;;;;;5056468;28;20270;-89
2022/07/07 06:28:04;;;;;;;10.30;3.15;;;16.90;95.20;;;;;;5055365;28;20616;-89
2022/07/07 06:30:30;;;;;;;10.80;3.08;;;16.80;95.10;;;;;;5055445;28;20172;-89
2022/07/07 06:32:56;;;;;;;13.30;3.92;;;16.80;95.10;;;;;;5055149;28;20176;-90
2022/07/07 06:35:26;;;;;;;15.57;4.13;;;16.70;94.90;;;;;;5054902;28;20203;-89
2022/07/07 06:37:52;;;;;;;19.67;4.53;;;16.70;94.80;;;;;;5055928;28;20231;-90
2022/07/07 06:40:18;;;;;;;9.98;3.53;;;16.80;94.80;;;;;;5054877;28;20176;-90
2022/07/07 06:42:44;;;;;;;13.98;4.22;;;17.00;95.00;;;;;;5054789;28;20693;-90
2022/07/07 06:45:09;;;;;;;15.60;3.80;;;16.90;94.80;;;;;;5054780;28;20199;-89
2022/07/07 06:47:35;;;;;;;17.55;4.03;;;17.00;94.70;;;;;;5054830;28;20215;-89
2022/07/07 06:50:01;;;;;;;15.98;4.60;;;17.10;94.70;;;;;;5054730;28;20174;-89
2022/07/07 06:52:26;;;;;;;14.70;4.10;;;17.00;94.50;;;;;;5054673;28;20232;-90
2022/07/07 06:54:52;;;;;;;14.65;4.57;;;17.20;94.60;;;;;;5054667;28;20253;-90
2022/07/07 06:57:17;;;;;;;10.57;3.17;;;17.00;94.20;;;;;;5054723;28;20183;-89
2022/07/07 06:59:43;;;;;;;22.60;3.97;;;17.00;94.20;;;;;;5054503;28;20271;-90
2022/07/07 07:02:08;;;;;;;8.82;3.22;;;16.90;94.00;;;;;;5054533;28;20192;-89
2022/07/07 07:04:34;;;;;;;6.30;2.60;;;16.80;94.10;;;;;;5055751;28;20263;-90
2022/07/07 07:07:00;;;;;;;10.10;3.15;;;16.70;94.00;;;;;;5054419;28;20184;-89
2022/07/07 07:09:26;;;;;;;5.75;2.90;;;16.50;93.60;;;;;;5055821;28;20183;-89
2022/07/07 07:11:52;;;;;;;4.97;2.70;;;16.50;93.70;;;;;;5054220;28;20195;-89
2022/07/07 07:14:18;;;;;;;10.50;3.67;;;16.50;93.60;;;;;;5054330;28;20669;-89
2022/07/07 07:16:43;;;;;;;5.97;3.10;;;16.40;93.50;;;;;;5054206;28;20297;-90
2022/07/07 07:19:09;;;;;;;10.35;3.20;;;16.40;93.40;;;;;;5054175;28;20183;-89
2022/07/07 07:21:34;;;;;;;6.00;2.88;;;16.50;93.40;;;;;;5054316;28;20290;-89
2022/07/07 07:24:00;;;;;;;12.52;3.45;;;16.50;93.40;;;;;;5054007;28;20220;-88
2022/07/07 07:26:25;;;;;;;8.40;3.00;;;16.50;93.40;;;;;;5055595;28;20168;-88
2022/07/07 07:28:52;;;;;;;8.75;2.97;;;16.50;93.40;;;;;;5055520;28;20183;-92
2022/07/07 07:31:18;;;;;;;6.78;3.15;;;16.50;93.50;;;;;;5054974;28;20262;-88
2022/07/07 07:33:43;;;;;;;6.22;3.03;;;16.60;93.50;;;;;;5055238;28;20647;-87
2022/07/07 07:36:09;;;;;;;12.23;3.38;;;16.70;93.70;;;;;;5054346;28;20230;-88
2022/07/07 07:38:37;;;;;;;6.43;3.30;;;16.80;93.70;;;;;;5053976;28;20178;-89
2022/07/07 07:41:03;;;;;;;7.40;3.33;;;16.90;93.70;;;;;;5053756;28;20223;-89
2022/07/07 07:43:29;;;;;;;11.05;3.65;;;17.00;93.70;;;;;;5053926;28;20176;-89
2022/07/07 07:45:54;;;;;;;14.13;3.65;;;17.10;93.70;;;;;;5053746;28;20183;-89
2022/07/07 07:48:20;;;;;;;12.30;3.95;;;17.20;93.60;;;;;;5053694;28;20180;-89
2022/07/07 07:50:46;;;;;;;10.45;3.80;;;17.30;93.70;;;;;;5053890;28;20225;-88
2022/07/07 07:53:11;;;;;;;7.00;3.67;;;17.30;93.50;;;;;;5055125;28;20175;-89
2022/07/07 07:55:38;;;;;;;10.93;3.88;;;17.20;93.10;;;;;;5053589;28;20196;-89
2022/07/07 07:58:04;;;;;;;14.75;3.00;;;17.10;92.90;;;;;;5055031;28;20540;-89
2022/07/07 08:00:30;;;;;;;10.07;2.90;;;16.90;92.50;;;;;;5054511;28;20168;-89
2022/07/07 08:02:55;;;;;;;8.85;2.70;;;16.80;92.10;;;;;;5053220;28;20183;-90
2022/07/07 08:05:21;;;;;;;7.65;2.72;;;16.80;92.20;;;;;;5053825;28;20617;-91
2022/07/07 08:07:46;;;;;;;8.07;2.80;;;16.80;91.90;;;;;;5053189;28;20176;-90
2022/07/07 08:10:14;;;;;;;8.80;3.40;;;16.80;91.70;;;;;;5054446;28;20179;-89
2022/07/07 08:12:41;;;;;;;12.50;3.22;;;16.80;91.70;;;;;;5056098;28;20198;-92
2022/07/07 08:15:07;;;;;;;13.20;3.45;;;16.80;91.70;;;;;;5053924;28;20199;-90
2022/07/07 08:17:33;;;;;;;10.40;3.00;;;16.90;91.80;;;;;;5054350;28;20193;-89
2022/07/07 08:19:59;;;;;;;12.32;2.90;;;17.00;91.70;;;;;;5053281;28;20215;-90
2022/07/07 08:22:25;;;;;;;9.57;3.47;;;17.10;91.60;;;;;;5053015;28;20196;-88
2022/07/07 08:24:50;;;;;;;8.73;3.45;;;17.20;91.60;;;;;;5054349;28;20199;-91
2022/07/07 08:27:16;;;;;;;8.98;3.10;;;17.30;91.80;;;;;;5052879;28;20180;-91
2022/07/07 08:29:42;;;;;;;19.58;4.90;;;17.50;91.70;;;;;;5054228;28;20214;-90
2022/07/07 08:32:10;;;;;;;13.40;3.47;;;17.60;91.30;;;;;;5052803;28;20203;-90
2022/07/07 08:34:37;;;;;;;10.73;3.92;;;17.60;90.90;;;;;;5053857;28;20192;-90
2022/07/07 08:37:03;;;;;;;9.23;2.92;;;17.60;90.80;;;;;;5056446;28;20176;-89
2022/07/07 08:39:29;;;;;;;11.50;3.00;;;17.50;90.50;;;;;;5057185;28;20194;-91
2022/07/07 08:41:54;;;;;;;11.38;3.60;;;17.40;90.30;;;;;;5053096;28;20215;-91
2022/07/07 08:44:20;;;;;;;7.47;3.00;;;17.40;90.30;;;;;;5052911;28;20266;-89
2022/07/07 08:46:46;;;;;;;14.15;3.92;;;17.30;90.10;;;;;;5052705;28;20172;-91
2022/07/07 08:49:11;;;;;;;8.57;2.33;;;17.30;90.40;;;;;;5055051;28;20180;-90
2022/07/07 08:51:41;;;;;;;7.57;2.28;;;17.20;90.20;;;;;;5054767;28;20207;-91
2022/07/07 08:54:09;;;;;;;8.98;3.25;;;17.20;89.60;;;;;;5053351;28;20168;-91
2022/07/07 08:56:38;;;;;;;8.27;2.88;;;17.40;90.00;;;;;;5053774;28;20195;-88
2022/07/07 08:59:05;;;;;;;7.60;2.88;;;17.80;90.40;;;;;;5053729;28;20723;-88
2022/07/07 09:01:32;;;;;;;6.50;1.80;;;18.10;90.30;;;;;;5053667;28;20278;-88
2022/07/07 09:03:58;;;;;;;9.93;2.60;;;18.20;89.00;;;;;;5052567;28;20255;-88
2022/07/07 09:06:23;;;;;;;4.45;1.88;;;18.40;88.50;;;;;;5052544;28;20218;-89
2022/07/07 09:08:49;;;;;;;9.18;2.45;;;18.40;86.70;;;;;;5053703;28;20641;-89
2022/07/07 09:11:14;;;;;;;4.35;1.70;;;18.40;85.70;;;;;;5052537;28;20548;-89
2022/07/07 09:13:40;;;;;;;7.45;2.47;;;18.30;85.30;;;;;;5054889;28;20176;-91
2022/07/07 09:16:16;;;;;;;7.03;2.05;;;18.20;83.80;;;;;;5052419;28;20218;-89
2022/07/07 09:18:44;;;;;;;4.38;1.70;;;18.00;83.80;;;;;;5052337;28;20544;-90
2022/07/07 09:21:36;;;;;;;5.13;1.85;;;17.80;83.40;;;;;;5052371;28;20196;-90
2022/07/07 09:24:07;;;;;;;8.85;2.00;;;17.70;84.70;;;;;;5048438;28;20279;-90
2022/07/07 09:26:50;;;;;;;8.40;2.58;;;17.60;85.50;;;;;;5052357;28;20263;-90
2022/07/07 09:29:21;;;;;;;14.77;2.38;;;17.70;85.90;;;;;;5052707;28;20164;-90
2022/07/07 09:31:55;;;;;;;5.70;1.98;;;17.80;85.70;;;;;;5054184;28;20202;-88
2022/07/07 09:34:23;;;;;;;8.35;2.38;;;17.90;85.20;;;;;;5052797;28;20188;-89
2022/07/07 09:39:49;;;;;;;6.68;2.17;;;18.20;84.90;;;;;;5053567;28;20251;-88
2022/07/07 09:42:23;;;;;;;10.93;2.70;;;18.20;83.90;;;;;;5052260;28;20192;-89
2022/07/07 09:45:00;;;;;;;9.25;2.13;;;18.20;83.60;;;;;;5053424;28;20179;-92
2022/07/07 09:47:26;;;;;;;6.60;2.20;;;18.10;82.90;;;;;;5053028;28;20167;-90
2022/07/07 09:50:06;;;;;;;6.25;2.00;;;17.80;82.60;;;;;;5053454;28;20176;-90
2022/07/07 09:52:37;;;;;;;9.82;2.30;;;17.70;83.30;;;;;;5053797;28;20223;-92
2022/07/07 09:55:04;;;;;;;8.55;3.50;;;17.70;83.00;;;;;;5052714;28;20222;-90
2022/07/07 09:57:30;;;;;;;9.23;2.58;;;17.70;83.60;;;;;;5052067;28;20678;-91
2022/07/07 09:59:56;;;;;;;10.60;2.53;;;17.80;84.20;;;;;;5055148;28;20176;-89
2022/07/07 10:02:24;;;;;;;6.05;2.30;;;17.80;84.00;;;;;;5055923;28;20192;-90
2022/07/07 10:04:53;;;;;;;13.43;2.80;;;18.00;84.40;;;;;;5056833;28;20179;-90
2022/07/07 10:07:27;;;;;;;12.52;3.03;;;17.90;83.80;;;;;;5056779;28;20190;-90
2022/07/07 10:09:55;;;;;;;9.50;2.47;;;17.90;82.60;;;;;;5056872;28;20225;-90
2022/07/07 10:12:26;;;;;;;8.50;2.55;;;17.80;82.40;;;;;;5055365;28;20333;-89
2022/07/07 10:15:02;;;;;;;9.57;3.20;;;17.60;83.20;;;;;;5055446;28;20192;-88
2022/07/07 10:17:28;;;;;;;5.95;2.20;;;17.40;84.20;;;;;;5056245;28;20152;-88
2022/07/07 10:19:54;;;;;;;10.73;2.80;;;17.30;84.90;;;;;;5055359;28;20176;-89
2022/07/07 10:22:26;;;;;;;7.88;2.42;;;17.50;86.10;;;;;;5055432;28;20195;-88
2022/07/07 10:24:52;;;;;;;8.93;2.63;;;17.80;86.20;;;;;;5055225;28;20565;-89
2022/07/07 10:27:22;;;;;;;9.00;2.80;;;18.20;85.00;;;;;;5055153;28;20178;-90
2022/07/07 10:29:53;;;;;;;4.88;2.05;;;18.30;83.10;;;;;;5055207;28;20263;-90
2022/07/07 10:32:33;;;;;;;6.95;1.88;;;18.50;81.40;;;;;;5056557;28;20224;-90
2022/07/07 10:35:12;;;;;;;10.98;3.22;;;18.60;82.00;;;;;;5055040;28;20743;-89
2022/07/07 10:37:49;;;;;;;7.90;2.25;;;19.00;82.40;;;;;;5055455;28;20175;-89
2022/07/07 10:40:18;;;;;;;5.50;1.65;;;18.70;81.30;;;;;;5055148;28;20205;-90
2022/07/07 10:43:13;;;;;;;5.40;1.52;;;18.50;80.80;;;;;;5056357;28;20206;-89
2022/07/07 10:45:45;;;;;;;3.13;1.33;;;18.30;81.40;;;;;;5054808;28;20168;-89
2022/07/07 10:48:51;;;;;;;4.53;1.38;;;18.30;82.40;;;;;;5056028;28;20255;-89
2022/07/07 10:51:22;;;;;;;3.10;1.10;;;18.50;82.80;;;;;;5054913;28;20192;-89
2022/07/07 10:53:55;;;;;;;4.15;1.27;;;18.60;80.80;;;;;;5055161;28;20184;-90
2022/07/07 10:56:20;;;;;;;3.30;1.10;;;18.50;80.40;;;;;;5054551;28;20575;-90
2022/07/07 10:58:56;;;;;;;2.95;1.52;;;18.50;81.20;;;;;;5054742;28;20173;-91
2022/07/07 11:01:23;;;;;;;4.93;1.70;;;18.40;83.00;;;;;;5054489;28;20199;-92
2022/07/07 11:03:49;;;;;;;4.70;1.50;;;18.20;83.90;;;;;;5055248;28;20180;-91
2022/07/07 11:06:14;;;;;;;5.88;1.40;;;18.20;84.30;;;;;;5055331;28;20187;-91
2022/07/07 11:08:40;;;;;;;7.03;1.60;;;18.60;84.80;;;;;;5056584;28;20176;-89
2022/07/07 11:11:07;;;;;;;3.63;1.25;;;18.80;83.20;;;;;;5055482;28;20188;-88
2022/07/07 11:13:43;;;;;;;3.92;1.83;;;18.90;82.10;;;;;;5055512;28;20172;-89
2022/07/07 11:16:09;;;;;;;2.10;1.00;;;18.80;81.70;;;;;;5055645;28;20195;-88
2022/07/07 11:18:35;;;;;;;7.85;1.70;;;18.80;81.40;;;;;;5055519;28;20259;-89
2022/07/07 11:21:04;;;;;;;3.47;1.10;;;18.80;81.60;;;;;;5054257;28;20595;-88
2022/07/07 11:23:48;;;;;;;2.80;1.20;;;18.60;81.50;;;;;;5055438;28;20626;-88
2022/07/07 11:26:16;;;;;;;3.95;1.40;;;18.30;82.00;;;;;;5054244;28;20192;-87
2022/07/07 11:28:42;;;;;;;7.15;1.40;;;18.10;83.80;;;;;;5053976;28;20175;-88
2022/07/07 11:31:09;;;;;;;3.17;1.60;;;17.80;84.90;;;;;;5053973;28;20207;-89
2022/07/07 11:33:35;;;;;;;3.25;1.65;;;17.70;86.20;;;;;;5053974;28;20266;-87
2022/07/07 11:36:19;;;;;;;6.15;1.92;;;17.60;86.90;;;;;;5053924;28;20203;-89
2022/07/07 11:38:46;;;;;;;7.40;2.08;;;17.40;87.50;;;;;;5053918;28;20195;-88
2022/07/07 11:41:12;;;;;;;7.13;1.83;;;17.20;87.60;;;;;;5055003;28;20266;-89
2022/07/07 11:43:38;;;;;;;8.35;2.30;;;17.10;88.50;;;;;;5053841;28;20670;-88
2022/07/07 11:46:04;;;;;;;10.68;2.65;;;17.00;88.40;;;;;;5053739;28;20265;-87
2022/07/07 11:48:38;;;;;;;12.85;2.95;;;17.00;88.50;;;;;;5053686;28;20254;-88
2022/07/07 11:51:05;;;;;;;9.90;2.70;;;17.00;88.20;;;;;;5053809;28;20250;-90
2022/07/07 11:53:30;;;;;;;13.18;3.25;;;17.10;87.80;;;;;;5054465;28;20176;-88
2022/07/07 11:55:56;;;;;;;11.95;3.47;;;17.20;87.20;;;;;;5054442;28;20211;-87
2022/07/07 11:58:22;;;;;;;17.30;4.00;;;17.40;86.40;;;;;;5055216;28;20237;-88
2022/07/07 12:00:51;;;;;;;17.55;3.55;;;17.70;86.10;;;;;;5055199;28;20226;-88
2022/07/07 12:03:17;;;;;;;14.73;4.22;;;17.80;84.90;;;;;;5054075;28;20172;-88
2022/07/07 12:05:46;;;;;;;16.27;3.63;;;17.70;82.10;;;;;;5053866;28;20203;-87
2022/07/07 12:08:13;;;;;;;17.67;3.70;;;17.70;81.30;;;;;;5055124;28;20178;-87
2022/07/07 12:10:42;;;;;;;20.10;4.05;;;17.80;82.00;;;;;;5055269;28;20524;-87
2022/07/07 12:13:13;;;;;;;18.52;3.40;;;18.00;81.50;;;;;;5053674;28;20204;-87
2022/07/07 12:15:42;;;;;;;19.83;3.72;;;18.20;80.40;;;;;;5053696;28;20570;-87
2022/07/07 12:18:10;;;;;;;22.52;3.65;;;18.70;80.60;;;;;;5055642;28;20164;-87
2022/07/07 12:20:37;;;;;;;19.70;3.42;;;19.00;77.00;;;;;;5055227;28;20245;-88
2022/07/07 12:23:08;;;;;;;19.48;3.63;;;18.80;75.20;;;;;;5054999;28;20638;-88
2022/07/07 12:25:34;;;;;;;17.13;4.13;;;18.50;74.10;;;;;;5053511;28;20191;-87
2022/07/07 12:28:08;;;;;;;22.58;4.13;;;18.40;74.60;;;;;;5054353;28;20180;-87
2022/07/07 12:30:36;;;;;;;20.77;4.40;;;18.20;74.00;;;;;;5055106;28;20172;-87
2022/07/07 12:33:04;;;;;;;25.42;4.57;;;18.30;75.10;;;;;;5053487;28;20184;-87
2022/07/07 12:35:32;;;;;;;24.10;4.53;;;18.20;75.00;;;;;;5054193;28;20230;-87
2022/07/07 12:38:02;;;;;;;18.20;3.25;;;18.20;75.30;;;;;;5053541;28;20594;-87
2022/07/07 12:40:30;;;;;;;19.75;3.60;;;18.30;73.90;;;;;;5053182;28;20234;-88
2022/07/07 12:42:57;;;;;;;18.00;4.10;;;18.20;74.00;;;;;;5054269;28;20172;-87